METAR Analyzer

一覧表示

Hello, Guest. (Login)

RJCC/CTS  -  札幌/新千歳

観測日時
2021-11-28 20:00 (UTC) (46分前)
気温
-5
露点
-5
湿数
0
相対湿度
100%
QNH
1025.1hPa
推定現地気圧
1022.1hPa
推定海面気圧
1025.4hPa
体感温度
-14.8
(無風時)
-0.9
HI
-6.8
気温前日比
-5
体感温度前日比
-6.1
HI前日比
-5.5
水平視程
>10000m
鉛直視程
データなし
雲底高度
No dense clouds
V/I
VMC (VFR)
RVR
No RVR data
卓越風
3kt from 160°
ガスト
No gust
降水
報告なし
その他の天気
報告なし
少しの(1/8) 層雲 @ 500ft AGL

RJCC 282000Z 16003KT 9999 FEW005 M05/M05 Q1025 RMK 1ST005 A3027

RJTT/HND  -  東京/羽田

観測日時
2021-11-28 20:00 (UTC) (46分前)
気温
7
露点
1
湿数
6
相対湿度
65.6%
QNH
1031.2hPa
推定現地気圧
1030.5hPa
推定海面気圧
1031.3hPa
体感温度
-1.8
(無風時)
10.4
HI
5.5
気温前日比
±0
体感温度前日比
+2.1
HI前日比
+0.4
水平視程
>10000m
鉛直視程
データなし
雲底高度
No dense clouds
V/I
VMC (VFR)
RVR
No RVR data
卓越風
6kt from 350°
ガスト
No gust
降水
報告なし
その他の天気
報告なし
少しの(1/8) 積雲 @ 3000ft AGL

RJTT 282000Z 35006KT 9999 FEW030 07/01 Q1031 NOSIG RMK 1CU030 A3045

RJAA/NRT  -  東京/成田

観測日時
2021-11-28 20:00 (UTC) (46分前)
気温
1
露点
-1
湿数
2
相対湿度
86.5%
QNH
1030.8hPa
推定現地気圧
1029.5hPa
推定海面気圧
1030.9hPa
体感温度
-4.3
(無風時)
5
HI
-0.6
気温前日比
-1
体感温度前日比
-4.4
HI前日比
-1
水平視程
>10000m
鉛直視程
データなし
雲底高度
No dense clouds
V/I
VMC (VFR)
RVR
No RVR data
卓越風
2kt from 320°
ガスト
No gust
降水
報告なし
その他の天気
報告なし
少しの(1/8) 積雲 @ 2000ft AGL

RJAA 282000Z 32002KT 9999 FEW020 01/M01 Q1030 NOSIG RMK 1CU020 A3044

RJGG/NGO  -  名古屋/中部

観測日時
2021-11-28 20:00 (UTC) (46分前)
気温
5
露点
2
湿数
3
相対湿度
80.9%
QNH
1030.8hPa
推定現地気圧
1030.3hPa
推定海面気圧
1030.8hPa
体感温度
-5.9
(無風時)
8.5
HI
3.7
気温前日比
-3
体感温度前日比
-1.5
HI前日比
-2.8
水平視程
>10000m
鉛直視程
データなし
雲底高度
No dense clouds
V/I
VMC (VFR)
RVR
No RVR data
卓越風
7kt from 20°
ガスト
No gust
降水
報告なし
その他の天気
報告なし
少しの(1/8) 積雲 @ 3000ft AGL

RJGG 282000Z 02007KT 9999 FEW030 05/02 Q1030 NOSIG RMK 1CU030 A3044

RJOO/ITM  -  大阪/伊丹

観測日時
2021-11-28 20:00 (UTC) (46分前)
気温
3
露点
1
湿数
2
相対湿度
86.7%
QNH
1030.8hPa
推定現地気圧
1029.3hPa
推定海面気圧
1030.8hPa
体感温度
-8
(無風時)
6.7
HI
1.6
気温前日比
+1
体感温度前日比
-2.7
HI前日比
+1.1
水平視程
>10000m
鉛直視程
データなし
雲底高度
No dense clouds
V/I
VMC (VFR)
RVR
No RVR data
卓越風
6kt from 320°
ガスト
No gust
降水
報告なし
その他の天気
報告なし
少しの(1/8) 積雲 @ 2500ft AGL

RJOO 282000Z 32006KT 9999 FEW025 03/01 Q1030 RMK 1CU025 A3044

RJBB/KIX  -  大阪/関西

観測日時
2021-11-28 20:00 (UTC) (46分前)
気温
6
露点
3
湿数
3
相対湿度
81%
QNH
1030hPa
推定現地気圧
1029.4hPa
推定海面気圧
1030.0hPa
体感温度
-5.3
(無風時)
9.4
HI
4.8
気温前日比
-4
体感温度前日比
-3
HI前日比
-4.1
水平視程
>10000m
鉛直視程
データなし
雲底高度
No dense clouds
V/I
VMC (VFR)
RVR
No RVR data
卓越風
8kt from 60°
ガスト
No gust
降水
報告なし
その他の天気
報告なし
目立った雲なし

RJBB 282000Z AUTO 06008KT 9999 NCD 06/03 Q1030 NOSIG

RJFF/FUK  -  福岡

観測日時
2021-11-28 20:00 (UTC) (46分前)
気温
7
露点
2
湿数
5
相対湿度
70.4%
QNH
1029.1hPa
推定現地気圧
1028.0hPa
推定海面気圧
1029.1hPa
体感温度
1.2
(無風時)
10.3
HI
5.6
気温前日比
+3
体感温度前日比
+5.7
HI前日比
+2.9
水平視程
>10000m
鉛直視程
データなし
雲底高度
データなし
V/I
判定不可
RVR
No RVR data
卓越風
3kt from 140°
ガスト
No gust
降水
報告なし
その他の天気
NSC
報告なし

RJFF 282000Z AUTO 14003KT 9999 NSC 07/02 Q1029 NOSIG RMK A3039

ROAH/OKA  -  那覇

観測日時
2021-11-28 20:00 (UTC) (46分前)
気温
21
露点
16
湿数
5
相対湿度
73.1%
QNH
1021.0hPa
推定現地気圧
1020.6hPa
推定海面気圧
1021.0hPa
体感温度
13
(無風時)
21.4
HI
21.1
気温前日比
±0
体感温度前日比
+0.7
HI前日比
+0.5
水平視程
>10000m
鉛直視程
データなし
雲底高度
10000ft AGL
V/I
VMC (VFR)
RVR
No RVR data
卓越風
12kt from 90°
ガスト
No gust
降水
弱い雨
その他の天気
報告なし
少しの(1/8) 積雲 @ 3500ft AGL / 隙間のある(7/8) 高層雲 @ 10000ft AGL

ROAH 282000Z 09012KT 9999 -RA FEW035 BKN100 21/16 Q1021 RMK 1CU035 7AS100 A3015

50.9msec